KGLW/GLW METAR and TAF weather

Enter ICAO airport designator
Station Type Date Time Source
KGLW METAR 2020/07/10 19:15 UTC NOAA

KGLW 101915Z AUTO 29011G18KT 10SM BKN040 BKN046 BKN050 30/23 A2990 RMK AO2 T03030225


Station Type Date Time Source
KGLW Decoded METAR 2020/07/10 19:15 UTC NOAA

Glasgow, Glasgow Municipal Airport, KY, United States (KGLW) 37-01-54N 085-57-13W
Jul 10, 2020 - 03:15 PM EDT / 2020.07.10 1915 UTC
Wind: from the WNW (290 degrees) at 13 MPH (11 KT) gusting to 21 MPH (18 KT):0
Visibility: 10 mile(s):0
Sky conditions: mostly cloudy
Temperature: 86.5 F (30.3 C)
Heat index: 93.2 F (34.0 C):1
Dew Point: 72.5 F (22.5 C)
Relative Humidity: 63%
Pressure (altimeter): 29.9 in. Hg (1012 hPa)
ob: KGLW 101915Z AUTO 29011G18KT 10SM BKN040 BKN046 BKN050 30/23 A2990 RMK AO2 T03030225
cycle: 19

Station Type Date Time Source
KGLW TAF UTC NOAA

Error!

Example: see airport list